createdAt,value
2023-03-08T00:02:05.201Z,45.07
2023-03-08T00:04:31.836Z,46.49
2023-03-08T00:06:58.513Z,46.68
2023-03-08T00:09:25.121Z,45.47
2023-03-08T00:11:51.783Z,44.91
2023-03-08T00:14:18.742Z,44.63
2023-03-08T00:16:45.388Z,44.09
2023-03-08T00:19:12.000Z,45.43
2023-03-08T00:21:38.575Z,45.43
2023-03-08T00:24:05.543Z,45.05
2023-03-08T00:26:32.217Z,44.98
2023-03-08T00:28:58.911Z,44.88
2023-03-08T00:31:25.734Z,46.87
2023-03-08T00:33:54.145Z,47.79
2023-03-08T00:36:21.104Z,47.40
2023-03-08T00:38:48.413Z,46.42
2023-03-08T00:41:15.398Z,45.92
2023-03-08T00:43:42.478Z,45.91
2023-03-08T00:46:09.727Z,46.00
2023-03-08T00:48:36.458Z,46.48
2023-03-08T00:51:03.216Z,46.48
2023-03-08T00:53:30.079Z,45.75
2023-03-08T00:55:58.883Z,45.32
2023-03-08T00:58:28.505Z,45.28
2023-03-08T01:00:55.414Z,46.03
2023-03-08T01:03:22.376Z,45.59
2023-03-08T01:05:52.282Z,45.64
2023-03-08T01:08:20.283Z,45.79
2023-03-08T01:10:56.931Z,47.14
2023-03-08T01:13:25.964Z,46.37
2023-03-08T01:15:52.659Z,46.90
2023-03-08T01:18:19.493Z,46.56
2023-03-08T01:20:56.072Z,45.98
2023-03-08T01:23:22.818Z,46.31
2023-03-08T01:25:49.480Z,46.68
2023-03-08T01:28:16.085Z,46.86
2023-03-08T01:30:42.669Z,46.25
2023-03-08T01:33:09.260Z,45.95
2023-03-08T01:35:38.003Z,45.91
2023-03-08T01:38:04.590Z,46.77
2023-03-08T01:40:31.226Z,49.03
2023-03-08T01:42:57.936Z,48.54
2023-03-08T01:46:15.642Z,48.11
2023-03-08T01:48:50.918Z,47.58
2023-03-08T01:51:24.443Z,47.45
2023-03-08T01:53:52.425Z,47.09
2023-03-08T01:56:20.652Z,48.09
2023-03-08T01:58:50.643Z,48.00
2023-03-08T02:01:19.375Z,48.36
2023-03-08T02:03:47.131Z,48.06
2023-03-08T02:06:16.095Z,48.02
2023-03-08T02:08:43.264Z,48.01
2023-03-08T02:11:11.315Z,48.29
2023-03-08T02:13:38.856Z,48.58
2023-03-08T02:16:09.360Z,49.26
2023-03-08T02:18:36.099Z,49.68
2023-03-08T02:21:02.729Z,49.00
2023-03-08T02:23:29.401Z,48.56
2023-03-08T02:26:00.792Z,48.62
2023-03-08T02:28:28.807Z,48.18
2023-03-08T02:30:56.187Z,48.37
2023-03-08T02:33:23.625Z,48.21
2023-03-08T02:35:50.962Z,47.94
2023-03-08T02:38:19.760Z,48.28
2023-03-08T02:40:46.779Z,48.32
2023-03-08T02:43:13.415Z,50.10
2023-03-08T02:45:40.190Z,51.37
2023-03-08T02:48:07.277Z,51.96
2023-03-08T02:50:33.944Z,51.98
2023-03-08T02:53:00.512Z,52.91
2023-03-08T02:55:27.361Z,51.94
2023-03-08T02:57:54.193Z,51.40
2023-03-08T03:00:21.110Z,52.68
2023-03-08T03:02:47.805Z,52.65
2023-03-08T03:05:14.471Z,51.68
2023-03-08T03:07:42.981Z,51.66
2023-03-08T03:10:12.920Z,50.39
2023-03-08T03:12:40.603Z,50.25
2023-03-08T03:15:09.005Z,50.23
2023-03-08T03:17:37.185Z,50.52
2023-03-08T03:20:11.861Z,50.48
2023-03-08T03:22:38.497Z,51.18
2023-03-08T03:25:06.009Z,51.03
2023-03-08T03:27:32.719Z,53.28
2023-03-08T03:29:59.359Z,52.16
2023-03-08T03:32:26.003Z,51.59
2023-03-08T03:34:52.748Z,50.47
2023-03-08T03:37:19.384Z,51.18
2023-03-08T03:39:45.990Z,51.35
2023-03-08T03:42:12.692Z,51.95
2023-03-08T03:44:39.403Z,50.75
2023-03-08T03:47:06.597Z,50.76
2023-03-08T03:49:33.633Z,50.51
2023-03-08T03:52:00.253Z,50.65
2023-03-08T03:54:26.890Z,52.72
2023-03-08T03:56:55.525Z,52.22
2023-03-08T03:59:22.237Z,52.58
2023-03-08T04:01:48.824Z,52.93
2023-03-08T04:04:15.428Z,51.90
2023-03-08T04:06:42.173Z,54.76
2023-03-08T04:09:14.253Z,53.05
2023-03-08T04:11:41.544Z,52.47
2023-03-08T04:14:08.572Z,52.06
2023-03-08T04:16:37.539Z,51.44
2023-03-08T04:19:07.481Z,52.66
2023-03-08T04:21:34.577Z,52.85
2023-03-08T04:24:01.198Z,51.73
2023-03-08T04:26:28.220Z,51.75
2023-03-08T04:28:54.948Z,53.61
2023-03-08T04:31:24.717Z,53.84
2023-03-08T04:33:52.220Z,54.85
2023-03-08T04:36:19.534Z,53.41
2023-03-08T04:38:47.228Z,52.93
2023-03-08T04:41:14.200Z,53.04
2023-03-08T04:43:52.409Z,53.26
2023-03-08T04:46:22.230Z,54.14
2023-03-08T04:48:49.093Z,55.15
2023-03-08T04:51:16.816Z,54.11
2023-03-08T04:53:45.435Z,54.00
2023-03-08T04:56:14.527Z,53.10
2023-03-08T04:58:41.526Z,53.70
2023-03-08T05:01:13.935Z,53.97
2023-03-08T05:03:40.947Z,53.23
2023-03-08T05:06:08.640Z,53.14
2023-03-08T05:08:35.752Z,54.45
2023-03-08T05:11:02.932Z,54.30
2023-03-08T05:13:32.895Z,53.89
2023-03-08T05:15:59.632Z,52.86
2023-03-08T05:18:26.264Z,52.70
2023-03-08T05:20:58.319Z,53.19
2023-03-08T05:23:28.499Z,52.96
2023-03-08T05:25:58.144Z,53.54
2023-03-08T05:28:27.612Z,55.95
2023-03-08T05:31:04.633Z,53.93
2023-03-08T05:33:31.842Z,54.56
2023-03-08T05:35:58.560Z,53.91
2023-03-08T05:38:25.862Z,53.53
2023-03-08T05:40:52.912Z,53.46
2023-03-08T05:43:20.229Z,56.30
2023-03-08T05:46:07.454Z,56.04
2023-03-08T05:48:36.156Z,55.53
2023-03-08T05:51:07.942Z,56.05
2023-03-08T05:53:35.489Z,55.91
2023-03-08T05:56:19.484Z,56.21
2023-03-08T05:58:48.178Z,56.14
2023-03-08T06:01:25.187Z,55.22
2023-03-08T06:03:57.397Z,57.56
2023-03-08T06:06:28.098Z,57.82
2023-03-08T06:08:56.370Z,61.81
2023-03-08T06:11:23.432Z,60.34
2023-03-08T06:13:52.958Z,59.94
2023-03-08T06:16:19.642Z,58.46
2023-03-08T06:18:46.253Z,57.21
2023-03-08T06:21:15.523Z,58.78
2023-03-08T06:23:42.536Z,58.25
2023-03-08T06:26:10.539Z,57.64
2023-03-08T06:28:40.222Z,56.73
2023-03-08T06:31:07.704Z,55.92
2023-03-08T06:33:34.847Z,54.73
2023-03-08T06:36:07.512Z,55.69
2023-03-08T06:38:36.260Z,55.15
2023-03-08T06:41:03.650Z,55.32
2023-03-08T06:43:30.304Z,56.48
2023-03-08T06:45:56.979Z,57.31
2023-03-08T06:48:24.039Z,57.36
2023-03-08T06:50:50.850Z,55.22
2023-03-08T06:53:17.512Z,54.93
2023-03-08T06:55:44.103Z,54.13
2023-03-08T06:58:10.745Z,55.57
2023-03-08T07:00:37.890Z,54.88
2023-03-08T07:03:04.756Z,56.63
2023-03-08T07:05:31.699Z,54.99
2023-03-08T07:07:58.653Z,53.01
2023-03-08T07:10:25.220Z,53.18
2023-03-08T07:12:51.884Z,54.68
2023-03-08T07:15:21.435Z,52.57
2023-03-08T07:17:50.437Z,53.17
2023-03-08T07:20:19.368Z,54.68
2023-03-08T07:22:46.842Z,53.41
2023-03-08T07:25:16.376Z,55.00
2023-03-08T07:27:43.769Z,54.01
2023-03-08T07:30:12.482Z,53.75
2023-03-08T07:32:40.956Z,55.44
2023-03-08T07:35:09.511Z,55.27
2023-03-08T07:37:36.177Z,54.67
2023-03-08T07:40:04.823Z,51.94
2023-03-08T07:42:31.964Z,53.00
2023-03-08T07:44:58.679Z,54.94
2023-03-08T07:47:25.320Z,55.06
2023-03-08T07:49:52.012Z,54.20
2023-03-08T07:52:18.616Z,52.27
2023-03-08T07:54:45.312Z,51.25
2023-03-08T07:57:15.528Z,50.96
2023-03-08T07:59:42.504Z,50.90
2023-03-08T08:02:13.642Z,51.01
2023-03-08T08:04:41.153Z,50.22
2023-03-08T08:07:12.800Z,50.69
2023-03-08T08:09:39.761Z,49.95
2023-03-08T08:12:06.667Z,51.42
2023-03-08T08:14:33.581Z,50.57
2023-03-08T08:17:00.870Z,51.19
2023-03-08T08:19:27.588Z,51.03
2023-03-08T08:21:54.188Z,51.28
2023-03-08T08:24:20.805Z,49.79
2023-03-08T08:26:47.505Z,51.92
2023-03-08T08:29:14.564Z,51.35
2023-03-08T08:31:41.345Z,51.74
2023-03-08T08:34:08.488Z,51.62
2023-03-08T08:36:35.296Z,51.63
2023-03-08T08:39:02.242Z,50.24
2023-03-08T08:41:29.816Z,49.40
2023-03-08T08:43:59.041Z,48.66
2023-03-08T08:46:28.061Z,46.99
2023-03-08T08:48:56.393Z,47.83
2023-03-08T08:51:23.575Z,50.39
2023-03-08T08:53:51.318Z,48.83
2023-03-08T08:56:26.668Z,46.94
2023-03-08T08:58:55.965Z,46.89
2023-03-08T09:01:25.688Z,46.37
2023-03-08T09:03:52.610Z,47.58
2023-03-08T09:06:21.081Z,46.60
2023-03-08T09:08:56.750Z,46.39
2023-03-08T09:11:24.839Z,46.33
2023-03-08T09:13:52.213Z,45.30
2023-03-08T09:16:45.391Z,44.79
2023-03-08T09:19:12.496Z,46.16
2023-03-08T09:21:39.314Z,45.24
2023-03-08T09:24:07.008Z,45.72
2023-03-08T09:26:38.231Z,44.58
2023-03-08T09:29:05.612Z,43.81
2023-03-08T09:31:35.009Z,43.33
2023-03-08T09:34:04.750Z,44.39
2023-03-08T09:36:31.626Z,43.15
2023-03-08T09:38:58.217Z,43.62
2023-03-08T09:41:33.744Z,44.90
2023-03-08T09:44:28.338Z,43.83
2023-03-08T09:47:16.279Z,45.76
2023-03-08T09:49:46.993Z,44.79
2023-03-08T09:52:31.009Z,45.17
2023-03-08T09:55:03.073Z,45.90
2023-03-08T09:57:37.063Z,44.90
2023-03-08T10:00:09.196Z,44.64
2023-03-08T10:03:04.055Z,45.33
2023-03-08T10:05:41.351Z,44.55
2023-03-08T10:08:17.265Z,43.52
2023-03-08T10:11:04.339Z,43.58
2023-03-08T10:13:32.543Z,43.00
2023-03-08T10:16:12.777Z,42.65
2023-03-08T10:18:53.270Z,43.68
2023-03-08T10:21:25.061Z,44.46
2023-03-08T10:24:27.078Z,41.88
2023-03-08T10:27:00.498Z,40.85
2023-03-08T10:29:27.250Z,40.46
2023-03-08T10:31:53.866Z,39.89
2023-03-08T10:34:25.629Z,39.64
2023-03-08T10:37:00.795Z,40.13
2023-03-08T10:39:28.216Z,39.88
2023-03-08T10:41:59.403Z,39.02
2023-03-08T10:44:40.788Z,38.30
2023-03-08T10:47:29.608Z,39.41
2023-03-08T10:50:05.176Z,39.20
2023-03-08T10:52:31.927Z,39.67
2023-03-08T10:55:06.982Z,38.89
2023-03-08T10:57:33.845Z,38.11
2023-03-08T11:00:21.347Z,38.80
2023-03-08T11:02:48.453Z,38.59
2023-03-08T11:05:26.571Z,38.75
2023-03-08T11:07:55.473Z,39.69
2023-03-08T11:10:25.263Z,39.05
2023-03-08T11:13:02.003Z,38.76
2023-03-08T11:15:31.194Z,38.94
2023-03-08T11:18:12.120Z,38.53
2023-03-08T11:20:55.751Z,39.11
2023-03-08T11:23:56.650Z,38.96
2023-03-08T11:26:44.836Z,37.77
2023-03-08T11:29:31.663Z,38.35
2023-03-08T11:32:04.670Z,38.42
2023-03-08T11:34:31.227Z,38.33
2023-03-08T11:37:36.126Z,39.13
2023-03-08T11:40:42.500Z,38.51
2023-03-08T11:43:40.083Z,38.20
2023-03-08T11:46:10.842Z,37.00
2023-03-08T11:48:55.660Z,37.49
2023-03-08T11:52:07.183Z,36.99
2023-03-08T11:55:02.204Z,36.22
2023-03-08T11:57:35.666Z,36.80
2023-03-08T12:00:32.410Z,36.25
2023-03-08T12:03:06.304Z,35.25
2023-03-08T12:05:39.225Z,35.92
2023-03-08T12:08:32.608Z,36.63
2023-03-08T12:11:06.731Z,36.66
2023-03-08T12:13:36.719Z,36.64
2023-03-08T12:16:13.656Z,36.51
2023-03-08T12:19:06.640Z,36.74
2023-03-08T12:21:49.361Z,36.49
2023-03-08T12:24:33.331Z,36.27
2023-03-08T12:27:05.237Z,35.79
2023-03-08T12:29:46.042Z,35.28
2023-03-08T12:32:14.215Z,36.13
2023-03-08T12:34:44.608Z,35.55
2023-03-08T12:37:25.896Z,35.55
2023-03-08T12:40:27.910Z,35.55
2023-03-08T12:43:19.884Z,34.47
2023-03-08T12:46:08.412Z,33.13
2023-03-08T12:48:39.867Z,34.54
2023-03-08T12:51:09.889Z,34.58
2023-03-08T12:54:03.300Z,33.71
2023-03-08T12:56:36.864Z,33.45
2023-03-08T12:59:14.972Z,33.84
2023-03-08T13:01:59.424Z,33.92
2023-03-08T13:04:40.904Z,35.03
2023-03-08T13:07:52.688Z,34.74
2023-03-08T13:10:23.608Z,34.92
2023-03-08T13:13:10.482Z,34.70
2023-03-08T13:15:40.026Z,35.33
2023-03-08T13:18:08.491Z,35.31
2023-03-08T13:20:42.079Z,34.49
2023-03-08T13:23:43.123Z,34.48
2023-03-08T13:26:09.737Z,34.60
2023-03-08T13:28:47.560Z,34.19
2023-03-08T13:31:29.407Z,33.41
2023-03-08T13:33:59.190Z,34.05
2023-03-08T13:36:29.720Z,34.54
2023-03-08T13:38:56.230Z,33.77
2023-03-08T13:41:52.358Z,34.50
2023-03-08T13:44:25.083Z,35.20
2023-03-08T13:46:55.233Z,36.19
2023-03-08T13:49:29.367Z,36.45
2023-03-08T13:51:58.954Z,35.82
2023-03-08T13:54:37.721Z,35.98
2023-03-08T13:57:15.775Z,35.49
2023-03-08T13:59:49.247Z,35.59
2023-03-08T14:02:23.193Z,36.00
2023-03-08T14:04:50.274Z,35.13
2023-03-08T14:07:34.830Z,35.26
2023-03-08T14:10:02.254Z,36.23
2023-03-08T14:12:32.936Z,36.76
2023-03-08T14:15:03.642Z,36.77
2023-03-08T14:17:34.551Z,36.66
2023-03-08T14:20:06.932Z,36.29
2023-03-08T14:22:40.420Z,35.95
2023-03-08T14:25:40.538Z,35.38
2023-03-08T14:28:33.807Z,35.21
2023-03-08T14:31:01.357Z,35.14
2023-03-08T14:33:41.696Z,35.07
2023-03-08T14:36:10.095Z,34.98
2023-03-08T14:38:37.060Z,35.13
2023-03-08T14:41:10.351Z,34.64
2023-03-08T14:43:37.729Z,35.28
2023-03-08T14:46:06.793Z,35.38
2023-03-08T14:48:38.164Z,35.11
2023-03-08T14:51:27.976Z,35.43
2023-03-08T14:54:02.256Z,35.82
2023-03-08T14:56:30.859Z,36.57
2023-03-08T14:59:00.930Z,36.65
2023-03-08T15:01:38.690Z,36.68
2023-03-08T15:04:20.856Z,36.32
2023-03-08T15:06:50.362Z,36.38
2023-03-08T15:09:19.823Z,37.45
2023-03-08T15:11:54.898Z,37.21
2023-03-08T15:14:21.647Z,37.10
2023-03-08T15:16:51.761Z,37.00
2023-03-08T15:19:21.765Z,37.33
2023-03-08T15:21:49.093Z,36.79
2023-03-08T15:24:21.093Z,36.95
2023-03-08T15:26:47.732Z,37.76
2023-03-08T15:29:28.079Z,37.43
2023-03-08T15:31:58.744Z,37.45
2023-03-08T15:34:29.226Z,37.10
2023-03-08T15:36:56.965Z,36.59
2023-03-08T15:39:24.605Z,36.55
2023-03-08T15:41:52.113Z,36.62
2023-03-08T15:44:22.074Z,36.40
2023-03-08T15:46:50.369Z,36.90
2023-03-08T15:49:23.355Z,37.73
2023-03-08T15:51:56.683Z,36.92
2023-03-08T15:54:23.798Z,37.29
2023-03-08T15:56:54.987Z,37.41
2023-03-08T15:59:24.681Z,37.13
2023-03-08T16:01:52.154Z,36.63
2023-03-08T16:04:18.819Z,36.24
2023-03-08T16:06:45.380Z,37.58
2023-03-08T16:09:12.034Z,37.28
2023-03-08T16:11:38.692Z,36.77
2023-03-08T16:14:05.419Z,36.47
2023-03-08T16:16:44.285Z,35.95
2023-03-08T16:19:11.672Z,35.54
2023-03-08T16:21:38.306Z,35.80
2023-03-08T16:24:05.291Z,35.72
2023-03-08T16:26:31.951Z,35.86
2023-03-08T16:28:58.648Z,36.94
2023-03-08T16:31:25.302Z,36.42
2023-03-08T16:33:51.938Z,35.89
2023-03-08T16:36:19.392Z,36.75
2023-03-08T16:38:45.957Z,37.88
2023-03-08T16:41:14.092Z,37.53
2023-03-08T16:43:48.373Z,38.03
2023-03-08T16:46:21.304Z,38.16
2023-03-08T16:48:51.811Z,39.70
2023-03-08T16:51:24.640Z,38.59
2023-03-08T16:53:51.607Z,38.53
2023-03-08T16:56:26.624Z,38.50
2023-03-08T16:58:55.029Z,37.87
2023-03-08T17:01:22.586Z,38.06
2023-03-08T17:03:49.602Z,37.38
2023-03-08T17:06:20.033Z,37.23
2023-03-08T17:08:47.241Z,37.33
2023-03-08T17:11:18.115Z,36.88
2023-03-08T17:13:50.891Z,37.28
2023-03-08T17:16:19.971Z,37.10
2023-03-08T17:18:48.086Z,37.80
2023-03-08T17:21:14.929Z,37.64
2023-03-08T17:23:41.871Z,37.84
2023-03-08T17:26:10.467Z,37.77
2023-03-08T17:28:38.362Z,38.16
2023-03-08T17:31:10.566Z,38.50
2023-03-08T17:33:37.654Z,39.22
2023-03-08T17:36:06.128Z,38.96
2023-03-08T17:38:34.198Z,39.18
2023-03-08T17:41:05.445Z,40.32
2023-03-08T17:43:32.066Z,39.82
2023-03-08T17:46:00.432Z,39.96
2023-03-08T17:48:27.177Z,39.44
2023-03-08T17:50:54.852Z,38.95
2023-03-08T17:53:27.778Z,38.61
2023-03-08T17:56:07.162Z,38.18
2023-03-08T17:58:35.168Z,38.30
2023-03-08T18:01:20.151Z,38.03
2023-03-08T18:03:48.782Z,37.66
2023-03-08T18:06:35.652Z,37.98
2023-03-08T18:09:10.644Z,38.83
2023-03-08T18:11:38.799Z,38.90
2023-03-08T18:14:08.841Z,38.89
2023-03-08T18:16:35.667Z,38.42
2023-03-08T18:19:06.178Z,38.67
2023-03-08T18:21:35.092Z,38.49
2023-03-08T18:24:05.449Z,39.39
2023-03-08T18:26:33.357Z,39.29
2023-03-08T18:29:03.630Z,38.92
2023-03-08T18:31:34.350Z,38.72
2023-03-08T18:34:02.953Z,38.31
2023-03-08T18:36:29.707Z,38.27
2023-03-08T18:38:56.358Z,38.58
2023-03-08T18:41:27.356Z,38.50
2023-03-08T18:44:01.442Z,39.24
2023-03-08T18:46:41.256Z,38.80
2023-03-08T18:49:17.061Z,38.64
2023-03-08T18:51:43.869Z,38.55
2023-03-08T18:54:14.266Z,39.00
2023-03-08T18:56:52.144Z,38.71
2023-03-08T18:59:25.244Z,37.98
2023-03-08T19:01:54.336Z,38.27
2023-03-08T19:04:21.089Z,38.87
2023-03-08T19:06:47.703Z,38.64
2023-03-08T19:09:16.546Z,38.82
2023-03-08T19:11:43.738Z,38.94
2023-03-08T19:14:12.460Z,39.10
2023-03-08T19:16:39.297Z,38.71
2023-03-08T19:19:09.273Z,38.45
2023-03-08T19:21:38.787Z,39.14
2023-03-08T19:24:05.788Z,39.16
2023-03-08T19:26:37.758Z,38.97
2023-03-08T19:29:12.350Z,39.09
2023-03-08T19:31:44.920Z,38.98
2023-03-08T19:34:13.735Z,39.06
2023-03-08T19:36:41.808Z,39.34
2023-03-08T19:39:12.942Z,38.76
2023-03-08T19:41:39.554Z,39.57
2023-03-08T19:44:07.660Z,38.62
2023-03-08T19:46:36.140Z,38.91
2023-03-08T19:49:03.834Z,39.92
2023-03-08T19:51:30.562Z,40.62
2023-03-08T19:53:57.733Z,40.93
2023-03-08T19:56:28.330Z,39.45
2023-03-08T19:58:59.401Z,40.23
2023-03-08T20:01:27.496Z,39.96
2023-03-08T20:03:54.790Z,39.17
2023-03-08T20:06:45.706Z,39.12
2023-03-08T20:09:18.293Z,38.80
2023-03-08T20:11:44.985Z,39.20
2023-03-08T20:14:11.616Z,39.74
2023-03-08T20:16:38.587Z,39.31
2023-03-08T20:19:05.892Z,39.56
2023-03-08T20:21:32.603Z,39.96
2023-03-08T20:23:59.787Z,40.04
2023-03-08T20:26:29.763Z,40.04
2023-03-08T20:28:56.838Z,41.66
2023-03-08T20:31:24.553Z,41.73
2023-03-08T20:33:51.346Z,41.24
2023-03-08T20:36:18.041Z,40.37
2023-03-08T20:38:45.037Z,39.82
2023-03-08T20:41:17.236Z,40.67
2023-03-08T20:43:46.906Z,40.91
2023-03-08T20:46:16.094Z,40.61
2023-03-08T20:48:44.576Z,40.77
2023-03-08T20:51:14.218Z,39.80
2023-03-08T20:53:42.159Z,40.19
2023-03-08T20:56:12.952Z,41.06
2023-03-08T20:58:39.679Z,41.01
2023-03-08T21:01:28.277Z,41.03
2023-03-08T21:03:55.237Z,40.59
2023-03-08T21:06:27.561Z,40.93
2023-03-08T21:08:54.447Z,41.01
2023-03-08T21:11:21.788Z,41.50
2023-03-08T21:13:49.725Z,41.05
2023-03-08T21:16:18.653Z,41.23
2023-03-08T21:18:49.433Z,42.10
2023-03-08T21:21:20.198Z,42.32
2023-03-08T21:23:46.788Z,42.61
2023-03-08T21:26:14.254Z,42.44
2023-03-08T21:28:40.917Z,41.22
2023-03-08T21:31:09.509Z,41.89
2023-03-08T21:33:36.190Z,41.53
2023-03-08T21:36:02.991Z,42.31
2023-03-08T21:38:29.614Z,42.66
2023-03-08T21:40:56.281Z,42.45
2023-03-08T21:43:22.892Z,42.40
2023-03-08T21:45:49.585Z,42.93
2023-03-08T21:48:16.235Z,42.82
2023-03-08T21:50:42.874Z,43.03
2023-03-08T21:53:09.551Z,42.49
2023-03-08T21:55:39.914Z,42.33
2023-03-08T21:58:08.304Z,41.85
2023-03-08T22:00:35.562Z,42.31
2023-03-08T22:03:02.285Z,42.15
2023-03-08T22:05:30.253Z,42.10
2023-03-08T22:07:57.396Z,42.11
2023-03-08T22:10:24.094Z,42.32
2023-03-08T22:12:50.755Z,42.62
2023-03-08T22:15:18.200Z,42.05
2023-03-08T22:17:44.997Z,42.16
2023-03-08T22:20:12.432Z,42.10
2023-03-08T22:22:40.076Z,42.91
2023-03-08T22:25:08.128Z,42.53
2023-03-08T22:27:34.851Z,42.17
2023-03-08T22:30:02.479Z,42.57
2023-03-08T22:32:29.209Z,43.83
2023-03-08T22:34:55.930Z,44.03
2023-03-08T22:37:22.893Z,42.59
2023-03-08T22:39:49.606Z,42.46
2023-03-08T22:42:16.753Z,42.95
2023-03-08T22:44:43.556Z,41.99
2023-03-08T22:47:10.378Z,43.58
2023-03-08T22:49:37.182Z,42.37
2023-03-08T22:52:04.761Z,41.83
2023-03-08T22:54:31.397Z,41.52
2023-03-08T22:56:58.210Z,41.99
2023-03-08T22:59:25.773Z,41.92
2023-03-08T23:01:53.580Z,41.67
2023-03-08T23:04:20.812Z,40.72
2023-03-08T23:06:48.040Z,41.76
2023-03-08T23:09:17.094Z,42.15
2023-03-08T23:11:44.807Z,42.06
2023-03-08T23:14:12.293Z,40.81
2023-03-08T23:16:44.056Z,40.20
2023-03-08T23:19:13.504Z,40.44
2023-03-08T23:21:40.195Z,42.24
2023-03-08T23:24:07.090Z,42.21
2023-03-08T23:26:34.681Z,41.98
2023-03-08T23:29:03.584Z,41.27
2023-03-08T23:31:33.181Z,42.14
2023-03-08T23:34:02.954Z,41.83
2023-03-08T23:36:31.241Z,41.31
2023-03-08T23:38:58.682Z,40.47
2023-03-08T23:41:25.861Z,41.02
2023-03-08T23:43:57.254Z,41.36
2023-03-08T23:46:24.657Z,40.71
2023-03-08T23:48:51.786Z,39.80
2023-03-08T23:51:20.678Z,39.47
2023-03-08T23:53:51.994Z,38.88
2023-03-08T23:56:26.986Z,39.34
2023-03-08T23:58:58.994Z,40.12
